sensor_id;sensor_type;location;lat;lon;timestamp;temperature;humidity
23087;DHT22;11712;51.134;4.156;2023-04-24T00:00:56;9.80;99.90
23087;DHT22;11712;51.134;4.156;2023-04-24T00:03:25;9.80;99.90
23087;DHT22;11712;51.134;4.156;2023-04-24T00:05:53;9.80;99.90
23087;DHT22;11712;51.134;4.156;2023-04-24T00:08:19;9.80;99.90
23087;DHT22;11712;51.134;4.156;2023-04-24T00:10:44;9.80;99.90
23087;DHT22;11712;51.134;4.156;2023-04-24T00:13:10;9.80;99.90
23087;DHT22;11712;51.134;4.156;2023-04-24T00:15:36;9.80;99.90
23087;DHT22;11712;51.134;4.156;2023-04-24T00:18:01;9.80;99.90
23087;DHT22;11712;51.134;4.156;2023-04-24T00:20:27;9.80;99.90
23087;DHT22;11712;51.134;4.156;2023-04-24T00:22:57;9.80;99.90
23087;DHT22;11712;51.134;4.156;2023-04-24T00:25:23;9.80;99.90
23087;DHT22;11712;51.134;4.156;2023-04-24T00:27:49;9.80;99.90
23087;DHT22;11712;51.134;4.156;2023-04-24T00:30:14;9.80;99.90
23087;DHT22;11712;51.134;4.156;2023-04-24T00:32:40;9.70;99.90
23087;DHT22;11712;51.134;4.156;2023-04-24T00:35:06;9.70;99.90
23087;DHT22;11712;51.134;4.156;2023-04-24T00:37:31;9.70;99.90
23087;DHT22;11712;51.134;4.156;2023-04-24T00:39:57;9.70;99.90
23087;DHT22;11712;51.134;4.156;2023-04-24T00:42:23;9.70;99.90
23087;DHT22;11712;51.134;4.156;2023-04-24T00:44:49;9.70;99.90
23087;DHT22;11712;51.134;4.156;2023-04-24T00:47:15;9.70;99.90
23087;DHT22;11712;51.134;4.156;2023-04-24T00:49:40;9.70;99.90
23087;DHT22;11712;51.134;4.156;2023-04-24T00:52:06;9.60;99.90
23087;DHT22;11712;51.134;4.156;2023-04-24T00:54:34;9.60;99.90
23087;DHT22;11712;51.134;4.156;2023-04-24T00:57:00;9.60;99.90
23087;DHT22;11712;51.134;4.156;2023-04-24T00:59:26;9.50;99.90
23087;DHT22;11712;51.134;4.156;2023-04-24T01:01:52;9.50;99.90
23087;DHT22;11712;51.134;4.156;2023-04-24T01:04:18;9.60;99.90
23087;DHT22;11712;51.134;4.156;2023-04-24T01:06:44;9.60;99.90
23087;DHT22;11712;51.134;4.156;2023-04-24T01:09:11;9.60;99.90
23087;DHT22;11712;51.134;4.156;2023-04-24T01:11:37;9.60;99.90
23087;DHT22;11712;51.134;4.156;2023-04-24T01:14:03;9.60;99.90
23087;DHT22;11712;51.134;4.156;2023-04-24T01:16:28;9.60;99.90
23087;DHT22;11712;51.134;4.156;2023-04-24T01:18:54;9.60;99.90
23087;DHT22;11712;51.134;4.156;2023-04-24T01:21:19;9.60;99.90
23087;DHT22;11712;51.134;4.156;2023-04-24T01:23:46;9.60;99.90
23087;DHT22;11712;51.134;4.156;2023-04-24T01:26:12;9.60;99.90
23087;DHT22;11712;51.134;4.156;2023-04-24T01:28:38;9.60;99.90
23087;DHT22;11712;51.134;4.156;2023-04-24T01:31:04;9.60;99.90
23087;DHT22;11712;51.134;4.156;2023-04-24T01:33:29;9.60;99.90
23087;DHT22;11712;51.134;4.156;2023-04-24T01:35:55;9.60;99.90
23087;DHT22;11712;51.134;4.156;2023-04-24T01:38:21;9.60;99.90
23087;DHT22;11712;51.134;4.156;2023-04-24T01:40:47;9.60;99.90
23087;DHT22;11712;51.134;4.156;2023-04-24T01:43:13;9.60;99.90
23087;DHT22;11712;51.134;4.156;2023-04-24T01:45:38;9.60;99.90
23087;DHT22;11712;51.134;4.156;2023-04-24T01:48:04;9.60;99.90
23087;DHT22;11712;51.134;4.156;2023-04-24T01:50:30;9.70;99.90
23087;DHT22;11712;51.134;4.156;2023-04-24T01:52:56;9.70;99.90
23087;DHT22;11712;51.134;4.156;2023-04-24T01:55:21;9.60;99.90
23087;DHT22;11712;51.134;4.156;2023-04-24T01:57:47;9.50;99.90
23087;DHT22;11712;51.134;4.156;2023-04-24T02:00:13;9.50;99.90
23087;DHT22;11712;51.134;4.156;2023-04-24T02:02:39;9.50;99.90
23087;DHT22;11712;51.134;4.156;2023-04-24T02:05:05;9.40;99.90
23087;DHT22;11712;51.134;4.156;2023-04-24T02:07:31;9.40;99.90
23087;DHT22;11712;51.134;4.156;2023-04-24T02:09:58;9.40;99.90
23087;DHT22;11712;51.134;4.156;2023-04-24T02:12:23;9.30;99.90
23087;DHT22;11712;51.134;4.156;2023-04-24T02:14:49;9.30;99.90
23087;DHT22;11712;51.134;4.156;2023-04-24T02:17:14;9.20;99.90
23087;DHT22;11712;51.134;4.156;2023-04-24T02:19:41;9.10;99.90
23087;DHT22;11712;51.134;4.156;2023-04-24T02:22:07;9.10;99.90
23087;DHT22;11712;51.134;4.156;2023-04-24T02:24:32;9.00;99.90
23087;DHT22;11712;51.134;4.156;2023-04-24T02:26:58;9.00;99.90
23087;DHT22;11712;51.134;4.156;2023-04-24T02:29:23;9.00;99.90
23087;DHT22;11712;51.134;4.156;2023-04-24T02:31:49;9.00;99.90
23087;DHT22;11712;51.134;4.156;2023-04-24T02:34:15;9.00;99.90
23087;DHT22;11712;51.134;4.156;2023-04-24T02:36:41;9.00;99.90
23087;DHT22;11712;51.134;4.156;2023-04-24T02:39:07;9.00;99.90
23087;DHT22;11712;51.134;4.156;2023-04-24T02:41:32;9.00;99.90
23087;DHT22;11712;51.134;4.156;2023-04-24T02:43:58;8.90;99.90
23087;DHT22;11712;51.134;4.156;2023-04-24T02:46:24;8.90;99.90
23087;DHT22;11712;51.134;4.156;2023-04-24T02:48:49;8.90;99.90
23087;DHT22;11712;51.134;4.156;2023-04-24T02:51:15;8.90;99.90
23087;DHT22;11712;51.134;4.156;2023-04-24T02:53:41;8.90;99.90
23087;DHT22;11712;51.134;4.156;2023-04-24T02:56:06;8.90;99.90
23087;DHT22;11712;51.134;4.156;2023-04-24T02:58:32;9.00;99.90
23087;DHT22;11712;51.134;4.156;2023-04-24T03:00:57;9.00;99.90
23087;DHT22;11712;51.134;4.156;2023-04-24T03:03:23;9.00;99.90
23087;DHT22;11712;51.134;4.156;2023-04-24T03:05:49;9.00;99.90
23087;DHT22;11712;51.134;4.156;2023-04-24T03:08:15;9.00;99.90
23087;DHT22;11712;51.134;4.156;2023-04-24T03:10:41;9.10;99.90
23087;DHT22;11712;51.134;4.156;2023-04-24T03:13:06;9.10;99.90
23087;DHT22;11712;51.134;4.156;2023-04-24T03:15:32;9.10;99.90
23087;DHT22;11712;51.134;4.156;2023-04-24T03:17:57;9.00;99.90
23087;DHT22;11712;51.134;4.156;2023-04-24T03:20:23;9.00;99.90
23087;DHT22;11712;51.134;4.156;2023-04-24T03:22:49;9.10;99.90
23087;DHT22;11712;51.134;4.156;2023-04-24T03:25:14;9.10;99.90
23087;DHT22;11712;51.134;4.156;2023-04-24T03:27:40;9.10;99.90
23087;DHT22;11712;51.134;4.156;2023-04-24T03:30:07;9.00;99.90
23087;DHT22;11712;51.134;4.156;2023-04-24T03:32:32;9.00;99.90
23087;DHT22;11712;51.134;4.156;2023-04-24T03:34:58;9.00;99.90
23087;DHT22;11712;51.134;4.156;2023-04-24T03:37:24;9.00;99.90
23087;DHT22;11712;51.134;4.156;2023-04-24T03:39:49;9.00;99.90
23087;DHT22;11712;51.134;4.156;2023-04-24T03:42:15;8.90;99.90
23087;DHT22;11712;51.134;4.156;2023-04-24T03:44:41;8.90;99.90
23087;DHT22;11712;51.134;4.156;2023-04-24T03:47:06;8.90;99.90
23087;DHT22;11712;51.134;4.156;2023-04-24T03:49:32;8.80;99.90
23087;DHT22;11712;51.134;4.156;2023-04-24T03:51:57;8.80;99.90
23087;DHT22;11712;51.134;4.156;2023-04-24T03:54:23;8.80;99.90
23087;DHT22;11712;51.134;4.156;2023-04-24T03:56:49;8.80;99.90
23087;DHT22;11712;51.134;4.156;2023-04-24T03:59:14;8.80;99.90
23087;DHT22;11712;51.134;4.156;2023-04-24T04:01:40;8.70;99.90
23087;DHT22;11712;51.134;4.156;2023-04-24T04:04:06;8.70;99.90
23087;DHT22;11712;51.134;4.156;2023-04-24T04:06:31;8.70;99.90
23087;DHT22;11712;51.134;4.156;2023-04-24T04:08:57;8.70;99.90
23087;DHT22;11712;51.134;4.156;2023-04-24T04:11:23;8.70;99.90
23087;DHT22;11712;51.134;4.156;2023-04-24T04:13:48;8.70;99.90
23087;DHT22;11712;51.134;4.156;2023-04-24T04:16:14;8.70;99.90
23087;DHT22;11712;51.134;4.156;2023-04-24T04:18:42;8.70;99.90
23087;DHT22;11712;51.134;4.156;2023-04-24T04:21:09;8.60;99.90
23087;DHT22;11712;51.134;4.156;2023-04-24T04:23:35;8.60;99.90
23087;DHT22;11712;51.134;4.156;2023-04-24T04:26:01;8.60;99.90
23087;DHT22;11712;51.134;4.156;2023-04-24T04:28:26;8.50;99.90
23087;DHT22;11712;51.134;4.156;2023-04-24T04:30:52;8.50;99.90
23087;DHT22;11712;51.134;4.156;2023-04-24T04:33:21;8.50;99.90
23087;DHT22;11712;51.134;4.156;2023-04-24T04:35:47;8.50;99.90
23087;DHT22;11712;51.134;4.156;2023-04-24T04:38:17;8.50;99.90
23087;DHT22;11712;51.134;4.156;2023-04-24T04:40:43;8.50;99.90
23087;DHT22;11712;51.134;4.156;2023-04-24T04:43:09;8.50;99.90
23087;DHT22;11712;51.134;4.156;2023-04-24T04:45:36;8.50;99.90
23087;DHT22;11712;51.134;4.156;2023-04-24T04:48:02;8.50;99.90
23087;DHT22;11712;51.134;4.156;2023-04-24T04:50:28;8.50;99.90
23087;DHT22;11712;51.134;4.156;2023-04-24T04:52:54;8.50;99.90
23087;DHT22;11712;51.134;4.156;2023-04-24T04:55:20;8.50;99.90
23087;DHT22;11712;51.134;4.156;2023-04-24T04:57:45;8.40;99.90
23087;DHT22;11712;51.134;4.156;2023-04-24T05:00:11;8.40;99.90
23087;DHT22;11712;51.134;4.156;2023-04-24T05:02:38;8.40;99.90
23087;DHT22;11712;51.134;4.156;2023-04-24T05:05:04;8.40;99.90
23087;DHT22;11712;51.134;4.156;2023-04-24T05:07:30;8.40;99.90
23087;DHT22;11712;51.134;4.156;2023-04-24T05:09:56;8.40;99.90
23087;DHT22;11712;51.134;4.156;2023-04-24T05:12:21;8.40;99.90
23087;DHT22;11712;51.134;4.156;2023-04-24T05:14:47;8.40;99.90
23087;DHT22;11712;51.134;4.156;2023-04-24T05:17:13;8.40;99.90
23087;DHT22;11712;51.134;4.156;2023-04-24T05:19:38;8.40;99.90
23087;DHT22;11712;51.134;4.156;2023-04-24T05:22:04;8.40;99.90
23087;DHT22;11712;51.134;4.156;2023-04-24T05:24:34;8.40;99.90
23087;DHT22;11712;51.134;4.156;2023-04-24T05:27:00;8.40;99.90
23087;DHT22;11712;51.134;4.156;2023-04-24T05:29:25;8.40;99.90
23087;DHT22;11712;51.134;4.156;2023-04-24T05:31:51;8.40;99.90
23087;DHT22;11712;51.134;4.156;2023-04-24T05:34:17;8.40;99.90
23087;DHT22;11712;51.134;4.156;2023-04-24T05:36:43;8.40;99.90
23087;DHT22;11712;51.134;4.156;2023-04-24T05:39:08;8.40;99.90
23087;DHT22;11712;51.134;4.156;2023-04-24T05:41:34;8.40;99.90
23087;DHT22;11712;51.134;4.156;2023-04-24T05:44:00;8.40;99.90
23087;DHT22;11712;51.134;4.156;2023-04-24T05:46:25;8.40;99.90
23087;DHT22;11712;51.134;4.156;2023-04-24T05:48:51;8.50;99.90
23087;DHT22;11712;51.134;4.156;2023-04-24T05:51:17;8.40;99.90
23087;DHT22;11712;51.134;4.156;2023-04-24T05:53:42;8.50;99.90
23087;DHT22;11712;51.134;4.156;2023-04-24T05:56:08;8.50;99.90
23087;DHT22;11712;51.134;4.156;2023-04-24T05:58:34;8.60;99.90
23087;DHT22;11712;51.134;4.156;2023-04-24T06:00:59;8.60;99.90
23087;DHT22;11712;51.134;4.156;2023-04-24T06:03:26;8.60;99.90
23087;DHT22;11712;51.134;4.156;2023-04-24T06:05:53;8.60;99.90
23087;DHT22;11712;51.134;4.156;2023-04-24T06:08:18;8.70;99.90
23087;DHT22;11712;51.134;4.156;2023-04-24T06:10:44;8.60;99.90
23087;DHT22;11712;51.134;4.156;2023-04-24T06:13:10;8.70;99.90
23087;DHT22;11712;51.134;4.156;2023-04-24T06:15:36;8.70;99.90
23087;DHT22;11712;51.134;4.156;2023-04-24T06:18:02;8.70;99.90
23087;DHT22;11712;51.134;4.156;2023-04-24T06:20:28;8.70;99.90
23087;DHT22;11712;51.134;4.156;2023-04-24T06:22:53;8.70;99.90
23087;DHT22;11712;51.134;4.156;2023-04-24T06:25:19;8.70;99.90
23087;DHT22;11712;51.134;4.156;2023-04-24T06:27:45;8.80;99.90
23087;DHT22;11712;51.134;4.156;2023-04-24T06:30:10;8.80;99.90
23087;DHT22;11712;51.134;4.156;2023-04-24T06:32:36;8.80;99.90
23087;DHT22;11712;51.134;4.156;2023-04-24T06:35:01;8.70;99.90
23087;DHT22;11712;51.134;4.156;2023-04-24T06:37:27;8.70;99.90
23087;DHT22;11712;51.134;4.156;2023-04-24T06:39:53;8.70;99.90
23087;DHT22;11712;51.134;4.156;2023-04-24T06:42:18;8.70;99.90
23087;DHT22;11712;51.134;4.156;2023-04-24T06:44:46;8.70;99.90
23087;DHT22;11712;51.134;4.156;2023-04-24T06:47:11;8.70;99.90
23087;DHT22;11712;51.134;4.156;2023-04-24T06:49:39;8.70;99.90
23087;DHT22;11712;51.134;4.156;2023-04-24T06:52:05;8.70;99.90
23087;DHT22;11712;51.134;4.156;2023-04-24T06:54:31;8.70;99.90
23087;DHT22;11712;51.134;4.156;2023-04-24T06:56:58;8.70;99.90
23087;DHT22;11712;51.134;4.156;2023-04-24T06:59:24;8.60;99.90
23087;DHT22;11712;51.134;4.156;2023-04-24T07:01:49;8.70;99.90
23087;DHT22;11712;51.134;4.156;2023-04-24T07:04:16;8.70;99.90
23087;DHT22;11712;51.134;4.156;2023-04-24T07:06:42;8.60;99.90
23087;DHT22;11712;51.134;4.156;2023-04-24T07:09:08;8.60;99.90
23087;DHT22;11712;51.134;4.156;2023-04-24T07:11:35;8.70;99.90
23087;DHT22;11712;51.134;4.156;2023-04-24T07:14:02;8.70;99.90
23087;DHT22;11712;51.134;4.156;2023-04-24T07:16:27;8.60;99.90
23087;DHT22;11712;51.134;4.156;2023-04-24T07:18:53;8.70;99.90
23087;DHT22;11712;51.134;4.156;2023-04-24T07:21:19;8.80;99.90
23087;DHT22;11712;51.134;4.156;2023-04-24T07:23:44;8.80;99.90
23087;DHT22;11712;51.134;4.156;2023-04-24T07:26:10;9.00;99.90
23087;DHT22;11712;51.134;4.156;2023-04-24T07:28:36;9.00;99.90
23087;DHT22;11712;51.134;4.156;2023-04-24T07:31:01;8.90;99.90
23087;DHT22;11712;51.134;4.156;2023-04-24T07:33:27;8.90;99.90
23087;DHT22;11712;51.134;4.156;2023-04-24T07:35:52;9.00;99.90
23087;DHT22;11712;51.134;4.156;2023-04-24T07:38:18;9.10;99.90
23087;DHT22;11712;51.134;4.156;2023-04-24T07:40:47;9.10;99.90
23087;DHT22;11712;51.134;4.156;2023-04-24T07:43:13;9.10;99.90
23087;DHT22;11712;51.134;4.156;2023-04-24T07:45:39;9.00;99.90
23087;DHT22;11712;51.134;4.156;2023-04-24T07:48:05;8.90;99.90
23087;DHT22;11712;51.134;4.156;2023-04-24T07:50:30;8.90;99.90
23087;DHT22;11712;51.134;4.156;2023-04-24T07:52:56;8.90;99.90
23087;DHT22;11712;51.134;4.156;2023-04-24T07:55:21;8.90;99.90
23087;DHT22;11712;51.134;4.156;2023-04-24T07:57:47;9.00;99.90
23087;DHT22;11712;51.134;4.156;2023-04-24T08:00:13;9.10;99.90
23087;DHT22;11712;51.134;4.156;2023-04-24T08:02:38;9.30;99.90
23087;DHT22;11712;51.134;4.156;2023-04-24T08:05:05;9.40;99.90
23087;DHT22;11712;51.134;4.156;2023-04-24T08:07:31;9.50;99.90
23087;DHT22;11712;51.134;4.156;2023-04-24T08:09:56;9.50;99.90
23087;DHT22;11712;51.134;4.156;2023-04-24T08:12:22;9.50;99.90
23087;DHT22;11712;51.134;4.156;2023-04-24T08:14:47;9.60;99.90
23087;DHT22;11712;51.134;4.156;2023-04-24T08:17:13;9.80;99.90
23087;DHT22;11712;51.134;4.156;2023-04-24T08:19:39;10.00;99.90
23087;DHT22;11712;51.134;4.156;2023-04-24T08:22:08;9.90;99.90
23087;DHT22;11712;51.134;4.156;2023-04-24T08:24:33;9.80;99.90
23087;DHT22;11712;51.134;4.156;2023-04-24T08:26:59;9.50;99.90
23087;DHT22;11712;51.134;4.156;2023-04-24T08:29:26;9.50;99.90
23087;DHT22;11712;51.134;4.156;2023-04-24T08:31:52;9.50;99.90
23087;DHT22;11712;51.134;4.156;2023-04-24T08:34:20;9.50;99.90
23087;DHT22;11712;51.134;4.156;2023-04-24T08:36:46;9.50;99.90
23087;DHT22;11712;51.134;4.156;2023-04-24T08:39:11;9.60;99.90
23087;DHT22;11712;51.134;4.156;2023-04-24T08:41:37;9.60;99.90
23087;DHT22;11712;51.134;4.156;2023-04-24T08:44:03;9.60;99.90
23087;DHT22;11712;51.134;4.156;2023-04-24T08:46:29;9.50;99.90
23087;DHT22;11712;51.134;4.156;2023-04-24T08:48:55;9.50;99.90
23087;DHT22;11712;51.134;4.156;2023-04-24T08:51:21;9.50;99.90
23087;DHT22;11712;51.134;4.156;2023-04-24T08:53:47;9.60;99.90
23087;DHT22;11712;51.134;4.156;2023-04-24T08:56:13;9.80;99.90
23087;DHT22;11712;51.134;4.156;2023-04-24T08:58:39;9.80;99.90
23087;DHT22;11712;51.134;4.156;2023-04-24T09:01:05;9.80;99.90
23087;DHT22;11712;51.134;4.156;2023-04-24T09:03:31;10.10;99.90
23087;DHT22;11712;51.134;4.156;2023-04-24T09:05:58;10.30;99.90
23087;DHT22;11712;51.134;4.156;2023-04-24T09:08:24;10.60;99.90
23087;DHT22;11712;51.134;4.156;2023-04-24T09:10:50;10.70;99.90
23087;DHT22;11712;51.134;4.156;2023-04-24T09:13:16;10.90;99.90
23087;DHT22;11712;51.134;4.156;2023-04-24T09:15:42;10.80;99.90
23087;DHT22;11712;51.134;4.156;2023-04-24T09:18:07;10.60;99.90
23087;DHT22;11712;51.134;4.156;2023-04-24T09:20:33;10.50;99.90
23087;DHT22;11712;51.134;4.156;2023-04-24T09:23:00;10.50;99.90
23087;DHT22;11712;51.134;4.156;2023-04-24T09:25:32;10.60;99.90
23087;DHT22;11712;51.134;4.156;2023-04-24T09:28:02;10.90;99.90
23087;DHT22;11712;51.134;4.156;2023-04-24T09:30:28;11.00;99.90
23087;DHT22;11712;51.134;4.156;2023-04-24T09:33:15;10.90;99.90
23087;DHT22;11712;51.134;4.156;2023-04-24T09:35:40;10.70;99.90
23087;DHT22;11712;51.134;4.156;2023-04-24T09:38:06;10.50;99.90
23087;DHT22;11712;51.134;4.156;2023-04-24T09:40:33;10.60;99.90
23087;DHT22;11712;51.134;4.156;2023-04-24T09:42:59;10.80;99.90
23087;DHT22;11712;51.134;4.156;2023-04-24T09:45:28;11.00;99.90
23087;DHT22;11712;51.134;4.156;2023-04-24T09:48:00;11.00;99.90
23087;DHT22;11712;51.134;4.156;2023-04-24T09:50:26;10.50;99.90
23087;DHT22;11712;51.134;4.156;2023-04-24T09:52:59;10.30;99.90
23087;DHT22;11712;51.134;4.156;2023-04-24T09:55:25;10.20;99.90
23087;DHT22;11712;51.134;4.156;2023-04-24T09:57:57;10.40;99.90
23087;DHT22;11712;51.134;4.156;2023-04-24T10:00:29;10.40;99.90
23087;DHT22;11712;51.134;4.156;2023-04-24T10:05:24;10.60;99.90
23087;DHT22;11712;51.134;4.156;2023-04-24T10:07:51;10.60;99.90
23087;DHT22;11712;51.134;4.156;2023-04-24T10:10:16;10.60;99.90
23087;DHT22;11712;51.134;4.156;2023-04-24T10:12:42;10.60;99.90
23087;DHT22;11712;51.134;4.156;2023-04-24T10:15:09;10.50;99.90
23087;DHT22;11712;51.134;4.156;2023-04-24T10:17:37;10.60;99.90
23087;DHT22;11712;51.134;4.156;2023-04-24T10:20:04;10.80;99.90
23087;DHT22;11712;51.134;4.156;2023-04-24T10:22:32;10.90;99.90
23087;DHT22;11712;51.134;4.156;2023-04-24T10:24:58;11.00;99.90
23087;DHT22;11712;51.134;4.156;2023-04-24T10:27:24;11.30;99.90
23087;DHT22;11712;51.134;4.156;2023-04-24T10:29:51;11.10;99.90
23087;DHT22;11712;51.134;4.156;2023-04-24T10:32:18;11.10;99.90
23087;DHT22;11712;51.134;4.156;2023-04-24T10:34:43;11.10;99.90
23087;DHT22;11712;51.134;4.156;2023-04-24T10:37:10;11.10;99.90
23087;DHT22;11712;51.134;4.156;2023-04-24T10:39:35;11.10;99.90
23087;DHT22;11712;51.134;4.156;2023-04-24T10:42:13;11.00;99.90
23087;DHT22;11712;51.134;4.156;2023-04-24T10:44:40;11.20;99.90
23087;DHT22;11712;51.134;4.156;2023-04-24T10:47:05;11.00;99.90
23087;DHT22;11712;51.134;4.156;2023-04-24T10:49:37;11.10;99.90
23087;DHT22;11712;51.134;4.156;2023-04-24T10:52:03;11.00;99.90
23087;DHT22;11712;51.134;4.156;2023-04-24T10:59:48;11.30;99.90
23087;DHT22;11712;51.134;4.156;2023-04-24T11:02:14;11.30;99.90
23087;DHT22;11712;51.134;4.156;2023-04-24T11:04:40;11.50;99.90
23087;DHT22;11712;51.134;4.156;2023-04-24T11:07:10;11.70;99.90
23087;DHT22;11712;51.134;4.156;2023-04-24T11:09:36;12.00;99.90
23087;DHT22;11712;51.134;4.156;2023-04-24T11:12:03;12.00;99.90
23087;DHT22;11712;51.134;4.156;2023-04-24T11:14:30;12.10;99.90
23087;DHT22;11712;51.134;4.156;2023-04-24T11:16:55;11.90;99.90
23087;DHT22;11712;51.134;4.156;2023-04-24T11:19:22;11.60;99.90
23087;DHT22;11712;51.134;4.156;2023-04-24T11:21:54;11.40;99.90
23087;DHT22;11712;51.134;4.156;2023-04-24T11:29:47;11.70;99.90
23087;DHT22;11712;51.134;4.156;2023-04-24T11:32:16;11.70;99.90
23087;DHT22;11712;51.134;4.156;2023-04-24T11:34:48;11.80;99.90
23087;DHT22;11712;51.134;4.156;2023-04-24T11:37:14;11.80;99.90
23087;DHT22;11712;51.134;4.156;2023-04-24T11:39:40;12.20;99.90
23087;DHT22;11712;51.134;4.156;2023-04-24T11:42:06;12.50;99.90
23087;DHT22;11712;51.134;4.156;2023-04-24T11:44:36;12.60;99.90
23087;DHT22;11712;51.134;4.156;2023-04-24T11:47:04;12.90;99.90
23087;DHT22;11712;51.134;4.156;2023-04-24T11:49:29;13.50;99.90
23087;DHT22;11712;51.134;4.156;2023-04-24T11:51:55;12.90;99.90
23087;DHT22;11712;51.134;4.156;2023-04-24T11:54:21;12.80;99.90
23087;DHT22;11712;51.134;4.156;2023-04-24T11:56:47;12.90;99.90
23087;DHT22;11712;51.134;4.156;2023-04-24T11:59:13;12.50;99.90
23087;DHT22;11712;51.134;4.156;2023-04-24T12:01:48;12.20;99.90
23087;DHT22;11712;51.134;4.156;2023-04-24T12:04:14;12.30;99.90
23087;DHT22;11712;51.134;4.156;2023-04-24T12:07:02;12.40;99.90
23087;DHT22;11712;51.134;4.156;2023-04-24T12:09:26;12.70;99.90
23087;DHT22;11712;51.134;4.156;2023-04-24T12:11:53;12.40;99.90
23087;DHT22;11712;51.134;4.156;2023-04-24T12:14:19;12.60;99.90
23087;DHT22;11712;51.134;4.156;2023-04-24T12:16:47;12.50;99.90
23087;DHT22;11712;51.134;4.156;2023-04-24T12:19:17;12.30;99.90
23087;DHT22;11712;51.134;4.156;2023-04-24T12:21:42;12.20;99.90
23087;DHT22;11712;51.134;4.156;2023-04-24T12:24:08;12.10;99.90
23087;DHT22;11712;51.134;4.156;2023-04-24T12:26:34;12.20;99.90
23087;DHT22;11712;51.134;4.156;2023-04-24T12:29:01;12.50;99.90
23087;DHT22;11712;51.134;4.156;2023-04-24T12:31:26;12.50;99.90
23087;DHT22;11712;51.134;4.156;2023-04-24T12:33:54;12.50;99.90
23087;DHT22;11712;51.134;4.156;2023-04-24T12:36:21;12.70;99.90
23087;DHT22;11712;51.134;4.156;2023-04-24T12:38:46;12.90;99.90
23087;DHT22;11712;51.134;4.156;2023-04-24T12:41:17;13.20;99.90
23087;DHT22;11712;51.134;4.156;2023-04-24T12:43:53;13.40;99.90
23087;DHT22;11712;51.134;4.156;2023-04-24T12:46:20;13.60;99.90
23087;DHT22;11712;51.134;4.156;2023-04-24T12:48:45;12.90;99.90
23087;DHT22;11712;51.134;4.156;2023-04-24T12:51:11;12.60;99.90
23087;DHT22;11712;51.134;4.156;2023-04-24T12:53:36;12.60;99.90
23087;DHT22;11712;51.134;4.156;2023-04-24T12:56:02;12.40;99.90
23087;DHT22;11712;51.134;4.156;2023-04-24T12:58:27;12.20;99.90
23087;DHT22;11712;51.134;4.156;2023-04-24T13:00:53;11.90;99.90
23087;DHT22;11712;51.134;4.156;2023-04-24T13:03:19;11.80;99.90
23087;DHT22;11712;51.134;4.156;2023-04-24T13:05:45;12.10;99.90
23087;DHT22;11712;51.134;4.156;2023-04-24T13:08:10;11.90;99.90
23087;DHT22;11712;51.134;4.156;2023-04-24T13:10:36;11.90;99.90
23087;DHT22;11712;51.134;4.156;2023-04-24T13:13:02;12.40;99.90
23087;DHT22;11712;51.134;4.156;2023-04-24T13:15:28;12.20;99.90
23087;DHT22;11712;51.134;4.156;2023-04-24T13:17:54;12.50;99.90
23087;DHT22;11712;51.134;4.156;2023-04-24T13:20:19;12.60;99.90
23087;DHT22;11712;51.134;4.156;2023-04-24T13:22:45;12.70;99.90
23087;DHT22;11712;51.134;4.156;2023-04-24T13:25:11;12.70;99.90
23087;DHT22;11712;51.134;4.156;2023-04-24T13:27:39;12.70;99.90
23087;DHT22;11712;51.134;4.156;2023-04-24T13:30:05;12.90;99.90
23087;DHT22;11712;51.134;4.156;2023-04-24T13:32:31;12.70;99.90
23087;DHT22;11712;51.134;4.156;2023-04-24T13:34:57;12.80;99.90
23087;DHT22;11712;51.134;4.156;2023-04-24T13:37:23;12.70;99.90
23087;DHT22;11712;51.134;4.156;2023-04-24T13:39:48;12.80;99.90
23087;DHT22;11712;51.134;4.156;2023-04-24T13:42:14;13.00;99.90
23087;DHT22;11712;51.134;4.156;2023-04-24T13:44:39;13.20;99.90
23087;DHT22;11712;51.134;4.156;2023-04-24T13:47:05;13.60;99.90
23087;DHT22;11712;51.134;4.156;2023-04-24T13:49:31;13.80;99.90
23087;DHT22;11712;51.134;4.156;2023-04-24T13:51:56;13.20;99.90
23087;DHT22;11712;51.134;4.156;2023-04-24T13:54:22;12.70;99.90
23087;DHT22;11712;51.134;4.156;2023-04-24T13:56:51;13.00;99.90
23087;DHT22;11712;51.134;4.156;2023-04-24T13:59:17;13.40;99.90
23087;DHT22;11712;51.134;4.156;2023-04-24T14:01:42;13.20;99.90
23087;DHT22;11712;51.134;4.156;2023-04-24T14:04:10;13.10;99.90
23087;DHT22;11712;51.134;4.156;2023-04-24T14:06:35;12.90;99.90
23087;DHT22;11712;51.134;4.156;2023-04-24T14:09:01;12.90;99.90
23087;DHT22;11712;51.134;4.156;2023-04-24T14:11:26;12.70;99.90
23087;DHT22;11712;51.134;4.156;2023-04-24T14:13:52;13.20;99.90
23087;DHT22;11712;51.134;4.156;2023-04-24T14:16:18;13.20;99.90
23087;DHT22;11712;51.134;4.156;2023-04-24T14:18:44;12.90;99.90
23087;DHT22;11712;51.134;4.156;2023-04-24T14:21:09;12.90;99.90
23087;DHT22;11712;51.134;4.156;2023-04-24T14:23:35;13.60;99.90
23087;DHT22;11712;51.134;4.156;2023-04-24T14:26:03;13.50;99.90
23087;DHT22;11712;51.134;4.156;2023-04-24T14:28:28;13.70;99.90
23087;DHT22;11712;51.134;4.156;2023-04-24T14:30:54;13.90;99.90
23087;DHT22;11712;51.134;4.156;2023-04-24T14:33:19;14.30;99.90
23087;DHT22;11712;51.134;4.156;2023-04-24T14:35:45;14.70;99.90
23087;DHT22;11712;51.134;4.156;2023-04-24T14:38:11;14.20;99.90
23087;DHT22;11712;51.134;4.156;2023-04-24T14:40:37;13.70;99.90
23087;DHT22;11712;51.134;4.156;2023-04-24T14:43:02;13.70;99.90
23087;DHT22;11712;51.134;4.156;2023-04-24T14:45:28;13.20;99.90
23087;DHT22;11712;51.134;4.156;2023-04-24T14:47:54;13.30;99.90
23087;DHT22;11712;51.134;4.156;2023-04-24T14:50:20;13.30;99.90
23087;DHT22;11712;51.134;4.156;2023-04-24T14:52:46;13.50;99.90
23087;DHT22;11712;51.134;4.156;2023-04-24T14:55:12;13.70;99.90
23087;DHT22;11712;51.134;4.156;2023-04-24T14:57:37;13.30;99.90
23087;DHT22;11712;51.134;4.156;2023-04-24T15:00:03;13.30;99.90
23087;DHT22;11712;51.134;4.156;2023-04-24T15:02:32;14.10;99.90
23087;DHT22;11712;51.134;4.156;2023-04-24T15:04:57;14.10;99.90
23087;DHT22;11712;51.134;4.156;2023-04-24T15:07:24;13.40;99.90
23087;DHT22;11712;51.134;4.156;2023-04-24T15:09:49;13.50;99.90
23087;DHT22;11712;51.134;4.156;2023-04-24T15:12:15;13.50;99.90
23087;DHT22;11712;51.134;4.156;2023-04-24T15:14:41;13.10;99.90
23087;DHT22;11712;51.134;4.156;2023-04-24T15:17:06;13.40;99.90
23087;DHT22;11712;51.134;4.156;2023-04-24T15:19:32;13.20;99.90
23087;DHT22;11712;51.134;4.156;2023-04-24T15:21:57;12.80;99.90
23087;DHT22;11712;51.134;4.156;2023-04-24T15:24:23;12.80;99.90
23087;DHT22;11712;51.134;4.156;2023-04-24T15:26:48;12.70;99.90
23087;DHT22;11712;51.134;4.156;2023-04-24T15:29:14;12.70;99.90
23087;DHT22;11712;51.134;4.156;2023-04-24T15:31:40;12.70;99.90
23087;DHT22;11712;51.134;4.156;2023-04-24T15:34:05;12.70;99.90
23087;DHT22;11712;51.134;4.156;2023-04-24T15:36:31;12.50;99.90
23087;DHT22;11712;51.134;4.156;2023-04-24T15:38:57;12.70;99.90
23087;DHT22;11712;51.134;4.156;2023-04-24T15:41:23;12.70;99.90
23087;DHT22;11712;51.134;4.156;2023-04-24T15:43:48;13.10;99.90
23087;DHT22;11712;51.134;4.156;2023-04-24T15:46:14;13.00;99.90